createdAt,value
2022-10-06T00:00:05.516Z,75.88
2022-10-06T00:04:12.092Z,76.29
2022-10-06T00:08:13.044Z,74.83
2022-10-06T00:12:13.783Z,73.64
2022-10-06T00:16:21.592Z,74.10
2022-10-06T00:20:25.716Z,73.75
2022-10-06T00:24:28.612Z,72.69
2022-10-06T00:28:33.498Z,71.34
2022-10-06T00:32:38.802Z,71.24
2022-10-06T00:36:43.817Z,72.32
2022-10-06T00:40:48.263Z,73.21
2022-10-06T00:44:55.686Z,73.08
2022-10-06T00:49:02.029Z,73.03
2022-10-06T00:53:09.951Z,73.99
2022-10-06T00:57:17.468Z,74.29
2022-10-06T01:01:17.944Z,73.60
2022-10-06T01:05:24.701Z,73.35
2022-10-06T01:09:35.253Z,72.81
2022-10-06T01:13:37.559Z,72.52
2022-10-06T01:17:42.698Z,72.79
2022-10-06T01:21:56.011Z,73.64
2022-10-06T01:26:05.765Z,73.24
2022-10-06T01:30:11.157Z,72.95
2022-10-06T01:34:21.496Z,72.77
2022-10-06T01:38:26.093Z,72.91
2022-10-06T01:42:36.076Z,73.34
2022-10-06T01:46:43.141Z,73.67
2022-10-06T01:50:46.924Z,73.92
2022-10-06T01:54:50.835Z,74.04
2022-10-06T01:58:53.504Z,74.07
2022-10-06T02:03:17.701Z,74.24
2022-10-06T02:07:38.188Z,74.25
2022-10-06T02:11:43.894Z,74.10
2022-10-06T02:15:52.199Z,74.45
2022-10-06T02:19:58.021Z,74.42
2022-10-06T02:24:05.798Z,74.53
2022-10-06T02:28:22.056Z,74.36
2022-10-06T02:32:55.785Z,74.36
2022-10-06T02:37:11.953Z,74.52
2022-10-06T02:42:05.126Z,75.26
2022-10-06T02:46:49.398Z,76.02
2022-10-06T02:51:53.997Z,75.70
2022-10-06T03:02:07.567Z,72.31
2022-10-06T03:07:20.317Z,71.24
2022-10-06T03:12:05.013Z,71.48
2022-10-06T03:21:23.395Z,72.34
2022-10-06T03:26:16.219Z,71.05
2022-10-06T03:30:28.375Z,70.94
2022-10-06T03:34:41.381Z,70.37
2022-10-06T03:38:56.237Z,71.06
2022-10-06T03:43:25.495Z,71.25
2022-10-06T03:47:53.874Z,72.45
2022-10-06T03:52:28.831Z,73.23
2022-10-06T03:56:41.429Z,73.99
2022-10-06T04:06:50.182Z,75.10
2022-10-06T04:12:09.982Z,77.66
2022-10-06T04:16:45.491Z,79.39
2022-10-06T04:45:34.128Z,78.44
2022-10-06T04:49:34.915Z,79.28
2022-10-06T04:53:41.601Z,79.14
2022-10-06T04:57:41.879Z,78.34
2022-10-06T05:01:44.651Z,77.83
2022-10-06T05:05:45.089Z,77.66
2022-10-06T05:09:45.528Z,76.95
2022-10-06T05:13:46.067Z,76.19
2022-10-06T05:17:49.436Z,75.45
2022-10-06T05:21:49.625Z,74.01
2022-10-06T05:25:53.414Z,71.90
2022-10-06T05:29:54.272Z,70.39
2022-10-06T05:33:59.844Z,69.17
2022-10-06T05:38:01.148Z,68.02
2022-10-06T05:42:01.643Z,68.68
2022-10-06T05:46:05.525Z,68.53
2022-10-06T05:50:08.903Z,68.58
2022-10-06T05:54:09.079Z,67.42
2022-10-06T05:58:09.110Z,65.95
2022-10-06T06:02:11.641Z,64.30
2022-10-06T06:06:32.060Z,63.31
2022-10-06T06:10:32.595Z,62.94
2022-10-06T06:14:52.436Z,61.93
2022-10-06T06:18:52.789Z,60.82
2022-10-06T06:22:56.801Z,61.11
2022-10-06T06:26:57.026Z,58.18
2022-10-06T06:31:05.220Z,58.08
2022-10-06T06:35:08.760Z,55.50
2022-10-06T06:39:13.296Z,53.92
2022-10-06T06:43:14.444Z,53.87
2022-10-06T06:47:23.115Z,52.10
2022-10-06T06:51:26.387Z,51.49
2022-10-06T06:55:29.092Z,51.11
2022-10-06T06:59:29.504Z,49.87
2022-10-06T07:03:56.228Z,49.52
2022-10-06T07:07:53.486Z,48.46
2022-10-06T07:11:56.974Z,48.31
2022-10-06T07:16:12.982Z,48.31
2022-10-06T07:20:30.104Z,48.97
2022-10-06T07:24:47.083Z,49.29
2022-10-06T07:28:52.956Z,50.40
2022-10-06T07:32:55.234Z,50.97
2022-10-06T07:36:56.591Z,50.09
2022-10-06T07:45:41.534Z,49.79
2022-10-06T07:49:46.022Z,47.13
2022-10-06T07:53:49.889Z,46.47
2022-10-06T07:57:50.903Z,47.45
2022-10-06T08:01:57.507Z,46.55
2022-10-06T08:06:01.170Z,46.97
2022-10-06T08:10:00.887Z,47.11
2022-10-06T08:14:01.161Z,47.02
2022-10-06T08:18:16.532Z,46.84
2022-10-06T08:22:27.209Z,46.24
2022-10-06T08:26:30.109Z,46.78
2022-10-06T08:30:30.529Z,47.19
2022-10-06T08:34:32.956Z,46.20
2022-10-06T08:38:34.508Z,45.85
2022-10-06T08:42:42.094Z,47.04
2022-10-06T08:46:49.251Z,48.58
2022-10-06T08:51:04.578Z,47.87
2022-10-06T08:55:16.216Z,48.69
2022-10-06T08:59:17.226Z,46.60
2022-10-06T09:03:24.352Z,47.29
2022-10-06T09:07:34.381Z,46.52
2022-10-06T09:11:47.827Z,46.46
2022-10-06T09:15:51.683Z,45.42
2022-10-06T09:19:59.042Z,45.41
2022-10-06T09:24:09.534Z,44.06
2022-10-06T09:28:16.933Z,44.69
2022-10-06T09:32:18.180Z,44.04
2022-10-06T09:36:18.817Z,45.41
2022-10-06T09:40:37.495Z,45.25
2022-10-06T09:44:50.826Z,44.23
2022-10-06T09:49:07.441Z,45.16
2022-10-06T09:53:18.146Z,45.11
2022-10-06T09:57:25.319Z,42.76
2022-10-06T10:01:27.746Z,41.46
2022-10-06T10:05:30.213Z,41.34
2022-10-06T10:09:31.666Z,41.49
2022-10-06T10:13:44.646Z,40.87
2022-10-06T10:17:50.641Z,38.54
2022-10-06T10:21:51.280Z,38.83
2022-10-06T10:26:10.259Z,38.89
2022-10-06T10:30:16.629Z,38.91
2022-10-06T10:34:28.771Z,39.03
2022-10-06T10:38:29.596Z,38.81
2022-10-06T10:42:37.098Z,37.73
2022-10-06T10:46:47.626Z,37.59
2022-10-06T10:50:56.619Z,37.72
2022-10-06T10:55:06.786Z,38.32
2022-10-06T10:59:32.508Z,38.97
2022-10-06T11:03:35.101Z,38.18
2022-10-06T11:07:45.175Z,38.27
2022-10-06T11:12:06.825Z,36.99
2022-10-06T11:16:23.762Z,37.01
2022-10-06T11:20:41.463Z,38.08
2022-10-06T11:24:49.173Z,36.86
2022-10-06T11:28:56.022Z,36.64
2022-10-06T11:33:14.014Z,35.74
2022-10-06T11:37:35.654Z,34.78
2022-10-06T11:41:41.092Z,34.74
2022-10-06T11:45:49.864Z,34.09
2022-10-06T11:49:53.233Z,35.00
2022-10-06T11:53:55.834Z,34.80
2022-10-06T11:58:37.399Z,34.25
2022-10-06T12:02:40.599Z,34.11
2022-10-06T12:07:06.053Z,33.11
2022-10-06T12:11:38.975Z,32.03
2022-10-06T12:20:46.369Z,32.13
2022-10-06T12:24:53.928Z,33.18
2022-10-06T12:28:59.436Z,32.40
2022-10-06T12:33:08.690Z,33.71
2022-10-06T12:37:27.336Z,33.40
2022-10-06T12:42:01.063Z,32.59
2022-10-06T12:46:02.887Z,32.53
2022-10-06T12:50:15.191Z,32.28
2022-10-06T12:54:21.414Z,32.59
2022-10-06T12:58:23.497Z,33.21
2022-10-06T13:02:25.932Z,32.04
2022-10-06T13:06:28.672Z,32.16
2022-10-06T13:10:29.807Z,31.52
2022-10-06T13:14:29.898Z,31.73
2022-10-06T13:18:35.185Z,31.76
2022-10-06T13:22:37.414Z,31.16
2022-10-06T13:26:37.708Z,31.15
2022-10-06T13:30:39.021Z,31.89
2022-10-06T13:34:43.001Z,31.70
2022-10-06T13:38:46.695Z,32.52
2022-10-06T13:42:49.591Z,32.07
2022-10-06T13:46:53.417Z,32.07
2022-10-06T13:50:55.107Z,31.86
2022-10-06T13:55:00.349Z,31.86
2022-10-06T13:59:16.958Z,32.85
2022-10-06T14:03:25.021Z,32.89
2022-10-06T14:07:25.920Z,32.50
2022-10-06T14:11:31.984Z,32.13
2022-10-06T14:15:50.696Z,32.78
2022-10-06T14:19:56.624Z,32.52
2022-10-06T14:23:58.908Z,32.73
2022-10-06T14:28:01.935Z,33.03
2022-10-06T14:32:23.122Z,33.27
2022-10-06T14:36:33.597Z,33.15
2022-10-06T14:40:36.182Z,32.98
2022-10-06T14:44:39.507Z,32.63
2022-10-06T14:48:44.309Z,32.70
2022-10-06T14:53:10.685Z,33.04
2022-10-06T14:57:29.840Z,33.88
2022-10-06T15:01:33.458Z,33.79
2022-10-06T15:05:33.805Z,33.68
2022-10-06T15:09:57.691Z,34.59
2022-10-06T15:14:14.946Z,34.20
2022-10-06T15:25:28.044Z,35.52
2022-10-06T15:30:29.455Z,37.74
2022-10-06T15:35:02.151Z,38.76
2022-10-06T15:50:36.323Z,41.89
2022-10-06T15:54:59.946Z,43.00
2022-10-06T15:59:01.823Z,42.81
2022-10-06T16:03:02.158Z,44.78
2022-10-06T16:07:22.023Z,46.32
2022-10-06T16:11:32.330Z,47.06
2022-10-06T16:15:48.801Z,47.69
2022-10-06T16:19:57.849Z,48.63
2022-10-06T16:24:07.026Z,49.65
2022-10-06T16:28:28.522Z,50.53
2022-10-06T16:32:36.220Z,51.28
2022-10-06T16:36:38.922Z,52.22
2022-10-06T16:40:43.683Z,53.11
2022-10-06T16:44:49.934Z,53.75
2022-10-06T16:49:01.059Z,54.44
2022-10-06T16:53:12.433Z,54.86
2022-10-06T16:57:34.558Z,55.71
2022-10-06T17:01:41.377Z,56.81
2022-10-06T17:05:51.561Z,57.00
2022-10-06T17:10:18.470Z,57.54
2022-10-06T17:14:25.056Z,57.56
2022-10-06T17:18:37.808Z,58.17
2022-10-06T17:22:38.682Z,58.44
2022-10-06T17:26:42.534Z,58.87
2022-10-06T17:30:59.809Z,58.90
2022-10-06T17:35:16.516Z,59.56
2022-10-06T17:39:24.100Z,59.50
2022-10-06T17:43:24.743Z,59.42
2022-10-06T17:52:43.105Z,58.17
2022-10-06T17:56:46.778Z,59.05
2022-10-06T18:01:07.157Z,59.50
2022-10-06T18:05:16.397Z,59.59
2022-10-06T18:09:18.341Z,59.51
2022-10-06T18:13:18.155Z,60.02
2022-10-06T18:17:23.381Z,60.45
2022-10-06T18:21:28.073Z,60.85
2022-10-06T18:25:40.593Z,61.18
2022-10-06T18:29:41.413Z,61.26
2022-10-06T18:38:09.037Z,61.11
2022-10-06T18:42:11.021Z,61.25
2022-10-06T18:46:29.881Z,61.81
2022-10-06T18:50:29.497Z,62.54
2022-10-06T18:54:32.089Z,62.79
2022-10-06T18:58:36.060Z,63.49
2022-10-06T19:02:36.548Z,64.01
2022-10-06T19:06:36.878Z,64.40
2022-10-06T19:10:59.074Z,64.14
2022-10-06T19:15:03.130Z,64.04
2022-10-06T19:19:10.269Z,64.04
2022-10-06T19:23:10.271Z,63.92
2022-10-06T19:27:15.877Z,63.27
2022-10-06T19:31:19.999Z,61.61
2022-10-06T19:35:24.332Z,61.93
2022-10-06T19:39:28.152Z,62.56
2022-10-06T19:43:30.887Z,62.06
2022-10-06T19:47:31.222Z,62.17
2022-10-06T19:51:31.397Z,62.95
2022-10-06T19:55:31.610Z,62.88
2022-10-06T19:59:36.422Z,62.92
2022-10-06T20:03:41.330Z,63.33
2022-10-06T20:07:42.079Z,63.72
2022-10-06T20:11:45.051Z,63.55
2022-10-06T20:15:47.746Z,63.31
2022-10-06T20:19:47.715Z,64.77
2022-10-06T20:23:52.560Z,64.76
2022-10-06T20:27:52.913Z,64.04
2022-10-06T20:31:58.573Z,62.95
2022-10-06T20:36:01.762Z,62.91
2022-10-06T20:40:18.282Z,63.35
2022-10-06T20:44:21.626Z,63.25
2022-10-06T20:48:29.339Z,62.72
2022-10-06T20:52:29.294Z,62.40
2022-10-06T20:56:29.735Z,62.12
2022-10-06T21:00:29.636Z,61.77
2022-10-06T21:04:32.264Z,60.97
2022-10-06T21:08:33.186Z,61.11
2022-10-06T21:12:33.730Z,61.46
2022-10-06T21:16:36.395Z,62.41
2022-10-06T21:20:41.844Z,63.24
2022-10-06T21:24:45.622Z,63.31
2022-10-06T21:28:45.695Z,63.57
2022-10-06T21:32:45.758Z,63.60
2022-10-06T21:36:48.204Z,64.30
2022-10-06T21:40:48.133Z,65.05
2022-10-06T21:44:48.297Z,65.71
2022-10-06T21:48:51.867Z,67.46
2022-10-06T21:52:54.055Z,69.06
2022-10-06T21:56:54.275Z,70.05
2022-10-06T22:00:58.008Z,69.96
2022-10-06T22:04:58.543Z,70.21
2022-10-06T22:09:01.585Z,70.43
2022-10-06T22:13:01.490Z,70.66
2022-10-06T22:17:02.134Z,70.27
2022-10-06T22:21:02.370Z,69.92
2022-10-06T22:25:04.833Z,69.50
2022-10-06T22:29:05.307Z,69.17
2022-10-06T22:33:05.391Z,68.53
2022-10-06T22:37:04.828Z,69.34
2022-10-06T22:41:09.052Z,70.19
2022-10-06T22:45:10.190Z,71.65
2022-10-06T22:49:10.405Z,72.48
2022-10-06T22:53:10.843Z,72.48
2022-10-06T22:57:12.671Z,72.74
2022-10-06T23:01:14.316Z,72.25
2022-10-06T23:05:14.823Z,71.11
2022-10-06T23:09:14.947Z,70.96
2022-10-06T23:13:16.603Z,70.60
2022-10-06T23:17:17.102Z,71.00
2022-10-06T23:21:21.111Z,71.51
2022-10-06T23:25:26.427Z,71.79
2022-10-06T23:29:29.563Z,71.89
2022-10-06T23:33:32.123Z,71.08
2022-10-06T23:37:32.659Z,70.77
2022-10-06T23:41:32.394Z,69.67
2022-10-06T23:45:35.127Z,69.69
2022-10-06T23:49:35.509Z,70.77
2022-10-06T23:53:36.151Z,71.03
2022-10-06T23:57:36.100Z,71.12
